createdAt,value
2022-12-23T00:01:34.984Z,11.06
2022-12-23T00:04:03.454Z,11.03
2022-12-23T00:06:31.827Z,11.02
2022-12-23T00:09:00.788Z,11.09
2022-12-23T00:11:29.864Z,11.18
2022-12-23T00:14:21.097Z,11.24
2022-12-23T00:16:51.646Z,11.18
2022-12-23T00:19:20.465Z,11.08
2022-12-23T00:21:49.458Z,11.01
2022-12-23T00:24:17.960Z,10.97
2022-12-23T00:26:46.300Z,10.94
2022-12-23T00:29:14.508Z,10.96
2022-12-23T00:31:42.927Z,11.04
2022-12-23T00:34:13.355Z,11.10
2022-12-23T00:36:41.700Z,11.11
2022-12-23T00:39:31.422Z,11.16
2022-12-23T00:42:19.032Z,11.16
2022-12-23T00:44:47.275Z,11.14
2022-12-23T00:47:35.327Z,11.17
2022-12-23T00:50:03.608Z,11.08
2022-12-23T00:52:31.931Z,10.97
2022-12-23T00:55:00.161Z,10.95
2022-12-23T00:57:28.404Z,10.92
2022-12-23T00:59:56.645Z,10.81
2022-12-23T01:02:43.619Z,10.68
2022-12-23T01:05:30.917Z,10.62
2022-12-23T01:07:59.155Z,10.55
2022-12-23T01:10:27.465Z,10.48
2022-12-23T01:12:55.763Z,10.44
2022-12-23T01:15:24.691Z,10.41
2022-12-23T01:17:52.986Z,10.35
2022-12-23T01:20:21.424Z,10.30
2022-12-23T01:22:49.805Z,10.26
2022-12-23T01:25:19.052Z,10.23
2022-12-23T01:27:47.290Z,10.20
2022-12-23T01:30:15.887Z,10.18
2022-12-23T01:32:44.138Z,10.16
2022-12-23T01:35:12.419Z,10.15
2022-12-23T01:37:41.112Z,10.13
2022-12-23T01:40:10.155Z,10.11
2022-12-23T01:42:45.131Z,10.07
2022-12-23T01:45:30.663Z,10.07
2022-12-23T01:48:13.701Z,10.01
2022-12-23T01:50:48.000Z,9.96
2022-12-23T01:53:27.396Z,9.96
2022-12-23T01:56:15.868Z,9.93
2022-12-23T01:58:46.720Z,9.92
2022-12-23T02:01:33.726Z,9.94
2022-12-23T02:04:10.214Z,9.90
2022-12-23T02:07:02.172Z,9.89
2022-12-23T02:09:33.861Z,9.85
2022-12-23T02:12:38.843Z,9.83
2022-12-23T02:15:47.776Z,9.80
2022-12-23T02:18:24.778Z,9.74
2022-12-23T02:21:13.778Z,9.76
2022-12-23T02:24:03.234Z,9.80
2022-12-23T02:27:01.792Z,9.80
2022-12-23T02:30:23.272Z,9.88
2022-12-23T02:33:25.189Z,9.84
2022-12-23T02:35:59.146Z,9.76
2022-12-23T02:39:00.543Z,9.74
2022-12-23T02:41:58.839Z,9.74
2022-12-23T02:44:39.504Z,9.75
2022-12-23T02:47:16.631Z,9.79
2022-12-23T02:49:51.606Z,9.85
2022-12-23T02:52:22.445Z,9.92
2022-12-23T02:54:57.545Z,10.00
2022-12-23T02:57:33.422Z,10.04
2022-12-23T03:00:02.569Z,10.05
2022-12-23T03:02:35.339Z,10.06
2022-12-23T03:05:03.872Z,10.11
2022-12-23T03:07:39.607Z,10.10
2022-12-23T03:10:16.552Z,10.03
2022-12-23T03:13:06.276Z,10.10
2022-12-23T03:16:00.647Z,10.09
2022-12-23T03:18:38.461Z,10.04
2022-12-23T03:21:16.670Z,10.02
2022-12-23T03:23:55.878Z,10.02
2022-12-23T03:26:58.884Z,10.05
2022-12-23T03:29:42.013Z,10.03
2022-12-23T03:32:14.280Z,10.01
2022-12-23T03:34:46.471Z,10.00
2022-12-23T03:37:19.767Z,10.05
2022-12-23T03:40:06.358Z,10.09
2022-12-23T03:42:39.446Z,10.12
2022-12-23T03:45:38.207Z,10.16
2022-12-23T03:48:16.538Z,10.09
2022-12-23T03:50:47.443Z,10.05
2022-12-23T03:53:22.613Z,10.00
2022-12-23T03:55:57.775Z,9.96
2022-12-23T03:58:59.517Z,9.95
2022-12-23T04:01:42.710Z,9.89
2022-12-23T04:04:21.965Z,9.89
2022-12-23T04:07:07.497Z,9.92
2022-12-23T04:09:37.460Z,10.05
2022-12-23T04:12:06.078Z,10.20
2022-12-23T04:14:36.628Z,10.26
2022-12-23T04:17:04.935Z,10.26
2022-12-23T04:19:34.264Z,10.23
2022-12-23T04:22:02.556Z,10.14
2022-12-23T04:24:30.888Z,10.14
2022-12-23T04:26:59.121Z,10.16
2022-12-23T04:29:27.476Z,10.11
2022-12-23T04:31:55.853Z,10.08
2022-12-23T04:34:24.105Z,10.03
2022-12-23T04:36:52.377Z,9.95
2022-12-23T04:39:20.822Z,9.92
2022-12-23T04:41:49.810Z,9.89
2022-12-23T04:44:21.170Z,9.88
2022-12-23T04:46:49.484Z,9.85
2022-12-23T04:49:17.765Z,9.84
2022-12-23T04:51:46.000Z,9.86
2022-12-23T04:54:14.305Z,9.93
2022-12-23T04:56:42.561Z,9.98
2022-12-23T04:59:11.713Z,10.12
2022-12-23T05:01:40.388Z,10.31
2022-12-23T05:04:08.890Z,10.28
2022-12-23T05:06:37.765Z,10.20
2022-12-23T05:09:07.063Z,10.11
2022-12-23T05:11:41.735Z,10.01
2022-12-23T05:14:12.041Z,10.04
2022-12-23T05:16:40.858Z,10.12
2022-12-23T05:19:09.551Z,10.09
2022-12-23T05:21:37.813Z,10.06
2022-12-23T05:24:06.188Z,10.03
2022-12-23T05:26:34.478Z,9.97
2022-12-23T05:29:02.719Z,9.95
2022-12-23T05:31:31.020Z,9.98
2022-12-23T05:34:05.704Z,10.01
2022-12-23T05:36:34.877Z,9.99
2022-12-23T05:39:03.093Z,9.95
2022-12-23T05:41:31.842Z,10.01
2022-12-23T05:44:00.878Z,10.16
2022-12-23T05:46:29.183Z,10.15
2022-12-23T05:48:57.443Z,10.02
2022-12-23T05:51:25.855Z,9.91
2022-12-23T05:53:54.139Z,9.81
2022-12-23T05:56:22.384Z,9.74
2022-12-23T05:58:50.643Z,9.70
2022-12-23T06:01:18.868Z,9.66
2022-12-23T06:03:47.172Z,9.66
2022-12-23T06:06:15.677Z,9.70
2022-12-23T06:08:43.948Z,9.69
2022-12-23T06:11:13.634Z,9.72
2022-12-23T06:13:41.867Z,9.74
2022-12-23T06:16:10.104Z,9.70
2022-12-23T06:18:38.400Z,9.65
2022-12-23T06:21:06.987Z,9.60
2022-12-23T06:23:35.277Z,9.56
2022-12-23T06:26:04.540Z,9.52
2022-12-23T06:28:32.913Z,9.50
2022-12-23T06:31:01.164Z,9.61
2022-12-23T06:33:29.399Z,9.65
2022-12-23T06:35:57.867Z,9.60
2022-12-23T06:38:26.115Z,9.55
2022-12-23T06:40:54.361Z,9.52
2022-12-23T06:43:22.722Z,9.54
2022-12-23T06:45:51.391Z,9.51
2022-12-23T06:48:19.669Z,9.47
2022-12-23T06:50:48.098Z,9.40
2022-12-23T06:53:16.420Z,9.33
2022-12-23T06:55:44.628Z,9.29
2022-12-23T06:58:12.934Z,9.27
2022-12-23T07:00:41.163Z,9.25
2022-12-23T07:03:09.684Z,9.30
2022-12-23T07:05:38.105Z,9.35
2022-12-23T07:08:06.769Z,9.31
2022-12-23T07:10:35.543Z,9.27
2022-12-23T07:13:03.815Z,9.28
2022-12-23T07:15:32.019Z,9.24
2022-12-23T07:18:00.287Z,9.22
2022-12-23T07:20:28.566Z,9.19
2022-12-23T07:22:58.004Z,9.25
2022-12-23T07:25:26.956Z,9.32
2022-12-23T07:27:56.409Z,9.30
2022-12-23T07:30:25.068Z,9.24
2022-12-23T07:32:53.740Z,9.23
2022-12-23T07:35:22.014Z,9.22
2022-12-23T07:37:54.867Z,9.24
2022-12-23T07:40:24.217Z,9.24
2022-12-23T07:42:58.510Z,9.24
2022-12-23T07:45:30.951Z,9.26
2022-12-23T07:48:03.539Z,9.26
2022-12-23T07:50:31.848Z,9.26
2022-12-23T07:53:00.050Z,9.28
2022-12-23T07:55:28.317Z,9.28
2022-12-23T07:57:56.721Z,9.29
2022-12-23T08:00:24.987Z,9.35
2022-12-23T08:02:53.295Z,9.38
2022-12-23T08:05:22.061Z,9.42
2022-12-23T08:07:50.955Z,9.52
2022-12-23T08:10:19.363Z,9.53
2022-12-23T08:12:47.825Z,9.53
2022-12-23T08:15:16.159Z,9.59
2022-12-23T08:17:44.447Z,9.68
2022-12-23T08:20:13.151Z,9.66
2022-12-23T08:22:41.389Z,9.65
2022-12-23T08:25:10.002Z,9.68
2022-12-23T08:27:38.259Z,9.64
2022-12-23T08:30:07.191Z,9.63
2022-12-23T08:32:35.458Z,9.57
2022-12-23T08:35:03.718Z,9.55
2022-12-23T08:37:31.917Z,9.52
2022-12-23T08:40:00.178Z,9.49
2022-12-23T08:42:28.479Z,9.48
2022-12-23T08:44:56.895Z,9.46
2022-12-23T08:47:25.106Z,9.46
2022-12-23T08:49:53.374Z,9.46
2022-12-23T08:52:21.597Z,9.46
2022-12-23T08:54:49.805Z,9.45
2022-12-23T08:57:18.037Z,9.48
2022-12-23T08:59:46.272Z,9.52
2022-12-23T09:02:14.723Z,9.50
2022-12-23T09:04:43.252Z,9.47
2022-12-23T09:07:11.508Z,9.47
2022-12-23T09:09:40.034Z,9.46
2022-12-23T09:12:08.525Z,9.45
2022-12-23T09:14:36.803Z,9.44
2022-12-23T09:17:05.325Z,9.42
2022-12-23T09:19:34.050Z,9.42
2022-12-23T09:22:02.282Z,9.50
2022-12-23T09:24:30.556Z,9.55
2022-12-23T09:26:58.809Z,9.61
2022-12-23T09:29:27.077Z,9.63
2022-12-23T09:31:55.308Z,9.58
2022-12-23T09:34:23.573Z,9.53
2022-12-23T09:36:55.301Z,9.50
2022-12-23T09:39:24.976Z,9.48
2022-12-23T09:42:05.394Z,9.46
2022-12-23T09:44:51.899Z,9.42
2022-12-23T09:47:24.341Z,9.40
2022-12-23T09:50:05.023Z,9.41
2022-12-23T09:53:00.850Z,9.42
2022-12-23T09:55:50.900Z,9.40
2022-12-23T09:58:29.822Z,9.38
2022-12-23T10:01:14.403Z,9.43
2022-12-23T10:03:55.673Z,9.44
2022-12-23T10:06:31.903Z,9.42
2022-12-23T10:09:03.799Z,9.41
2022-12-23T10:11:46.158Z,9.40
2022-12-23T10:14:30.828Z,9.43
2022-12-23T10:17:22.456Z,9.59
2022-12-23T10:19:51.804Z,9.59
2022-12-23T10:22:33.895Z,9.56
2022-12-23T10:25:06.845Z,9.50
2022-12-23T10:27:40.929Z,9.49
2022-12-23T10:30:34.403Z,9.49
2022-12-23T10:33:07.886Z,9.55
2022-12-23T10:35:49.373Z,9.56
2022-12-23T10:38:56.150Z,9.64
2022-12-23T10:41:56.394Z,9.57
2022-12-23T10:44:57.293Z,9.53
2022-12-23T10:47:46.597Z,9.50
2022-12-23T10:50:20.315Z,9.48
2022-12-23T10:52:50.651Z,9.50
2022-12-23T10:55:33.755Z,9.50
2022-12-23T10:58:19.147Z,9.49
2022-12-23T11:00:54.984Z,9.48
2022-12-23T11:03:42.927Z,9.57
2022-12-23T11:06:12.991Z,9.56
2022-12-23T11:08:41.797Z,9.57
2022-12-23T11:11:10.035Z,9.62
2022-12-23T11:13:44.141Z,9.60
2022-12-23T11:16:24.571Z,9.61
2022-12-23T11:19:05.735Z,9.67
2022-12-23T11:21:34.929Z,9.65
2022-12-23T11:24:16.286Z,9.60
2022-12-23T11:26:47.234Z,9.56
2022-12-23T11:29:34.527Z,9.52
2022-12-23T11:32:06.316Z,9.48
2022-12-23T11:34:39.213Z,9.53
2022-12-23T11:37:07.821Z,9.56
2022-12-23T11:39:38.600Z,9.57
2022-12-23T11:42:21.203Z,9.56
2022-12-23T11:44:53.085Z,9.54
2022-12-23T11:47:24.227Z,9.52
2022-12-23T11:49:58.488Z,9.51
2022-12-23T11:52:31.991Z,9.50
2022-12-23T11:55:05.710Z,9.50
2022-12-23T11:57:42.174Z,9.51
2022-12-23T12:00:22.070Z,9.52
2022-12-23T12:03:00.678Z,9.54
2022-12-23T12:05:39.156Z,9.57
2022-12-23T12:08:31.044Z,9.57
2022-12-23T12:11:30.656Z,9.58
2022-12-23T12:14:06.222Z,9.58
2022-12-23T12:16:58.908Z,9.59
2022-12-23T12:19:53.070Z,9.58
2022-12-23T12:22:39.795Z,9.57
2022-12-23T12:25:24.146Z,9.56
2022-12-23T12:28:01.056Z,9.65
2022-12-23T12:30:35.885Z,9.75
2022-12-23T12:33:13.455Z,9.75
2022-12-23T12:36:00.238Z,9.71
2022-12-23T12:38:36.057Z,9.67
2022-12-23T12:41:21.678Z,9.70
2022-12-23T12:44:23.194Z,9.84
2022-12-23T12:46:58.418Z,9.88
2022-12-23T12:49:44.573Z,9.92
2022-12-23T12:52:21.103Z,9.99
2022-12-23T12:54:58.046Z,10.08
2022-12-23T12:57:26.569Z,10.07
2022-12-23T13:00:05.292Z,10.00
2022-12-23T13:02:51.269Z,9.93
2022-12-23T13:05:54.852Z,9.87
2022-12-23T13:09:03.483Z,9.81
2022-12-23T13:11:47.429Z,9.76
2022-12-23T13:14:40.737Z,9.72
2022-12-23T13:17:14.165Z,9.70
2022-12-23T13:20:11.521Z,9.72
2022-12-23T13:22:40.547Z,9.69
2022-12-23T13:25:44.017Z,9.67
2022-12-23T13:28:45.941Z,9.65
2022-12-23T13:31:22.752Z,9.62
2022-12-23T13:34:28.806Z,9.65
2022-12-23T13:37:01.079Z,9.63
2022-12-23T13:39:57.745Z,9.64
2022-12-23T13:42:40.531Z,9.63
2022-12-23T13:45:16.317Z,9.65
2022-12-23T13:48:30.117Z,9.63
2022-12-23T13:51:21.920Z,9.75
2022-12-23T13:54:14.686Z,9.75
2022-12-23T13:56:49.270Z,9.71
2022-12-23T13:59:18.039Z,9.65
2022-12-23T14:01:49.381Z,9.61
2022-12-23T14:04:32.343Z,9.58
2022-12-23T14:07:07.080Z,9.59
2022-12-23T14:09:39.124Z,9.59
2022-12-23T14:12:36.847Z,9.57
2022-12-23T14:15:33.274Z,9.58
2022-12-23T14:18:32.070Z,9.61
2022-12-23T14:21:27.427Z,9.55
2022-12-23T14:24:22.543Z,9.55
2022-12-23T14:26:56.710Z,9.49
2022-12-23T14:29:47.010Z,9.50
2022-12-23T14:32:23.168Z,9.53
2022-12-23T14:35:18.353Z,9.56
2022-12-23T14:38:17.698Z,9.54
2022-12-23T14:41:19.292Z,9.48
2022-12-23T14:43:56.644Z,9.46
2022-12-23T14:46:37.232Z,9.52
2022-12-23T14:49:37.024Z,9.52
2022-12-23T14:51:57.014Z,9.55
2022-12-23T14:54:46.488Z,9.54
2022-12-23T14:57:29.181Z,9.54
2022-12-23T15:00:03.882Z,9.52
2022-12-23T15:02:42.571Z,9.49
2022-12-23T15:05:11.578Z,9.45
2022-12-23T15:07:45.298Z,9.46
2022-12-23T15:10:20.065Z,9.51
2022-12-23T15:12:53.099Z,9.55
2022-12-23T15:15:27.558Z,9.59
2022-12-23T15:18:13.554Z,9.62
2022-12-23T15:20:41.973Z,9.57
2022-12-23T15:23:12.991Z,9.54
2022-12-23T15:25:47.411Z,9.49
2022-12-23T15:28:22.371Z,9.47
2022-12-23T15:30:54.666Z,9.45
2022-12-23T15:34:01.534Z,9.46
2022-12-23T15:36:16.254Z,9.41
2022-12-23T15:38:44.530Z,9.40
2022-12-23T15:41:17.875Z,9.40
2022-12-23T15:43:47.064Z,9.36
2022-12-23T15:46:29.724Z,9.34
2022-12-23T15:48:59.287Z,9.32
2022-12-23T15:52:06.528Z,9.31
2022-12-23T15:54:35.090Z,9.34
2022-12-23T15:57:04.971Z,9.39
2022-12-23T15:59:39.598Z,9.41
2022-12-23T16:05:30.410Z,9.40
2022-12-23T16:08:34.344Z,9.40
2022-12-23T16:11:16.170Z,9.38
2022-12-23T16:14:02.092Z,9.41
2022-12-23T16:16:41.890Z,9.41
2022-12-23T16:19:42.425Z,9.45
2022-12-23T16:22:23.498Z,9.47
2022-12-23T16:24:54.876Z,9.53
2022-12-23T16:27:47.991Z,9.62
2022-12-23T16:30:22.610Z,9.63
2022-12-23T16:32:55.587Z,9.66
2022-12-23T16:35:34.559Z,9.64
2022-12-23T16:38:21.865Z,9.66
2022-12-23T16:40:55.901Z,9.71
2022-12-23T16:43:26.301Z,9.76
2022-12-23T16:45:58.095Z,9.81
2022-12-23T16:48:43.090Z,9.80
2022-12-23T16:51:17.226Z,9.77
2022-12-23T16:53:45.506Z,9.80
2022-12-23T16:56:15.471Z,9.84
2022-12-23T16:58:44.653Z,9.86
2022-12-23T17:01:44.506Z,9.91
2022-12-23T17:04:13.284Z,9.92
2022-12-23T17:06:42.421Z,9.95
2022-12-23T17:09:15.076Z,9.96
2022-12-23T17:11:54.120Z,9.98
2022-12-23T17:14:25.245Z,10.02
2022-12-23T17:16:54.019Z,10.06
2022-12-23T17:19:28.638Z,10.09
2022-12-23T17:22:02.896Z,10.12
2022-12-23T17:24:31.469Z,10.16
2022-12-23T17:26:59.788Z,10.17
2022-12-23T17:29:29.217Z,10.20
2022-12-23T17:31:57.543Z,10.21
2022-12-23T17:34:26.281Z,10.25
2022-12-23T17:36:54.886Z,10.32
2022-12-23T17:39:23.699Z,10.35
2022-12-23T17:41:53.118Z,10.40
2022-12-23T17:44:21.582Z,10.46
2022-12-23T17:46:49.932Z,10.52
2022-12-23T17:49:18.268Z,10.59
2022-12-23T17:51:46.619Z,10.68
2022-12-23T17:54:25.931Z,10.78
2022-12-23T17:56:57.292Z,10.85
2022-12-23T17:59:25.783Z,10.92
2022-12-23T18:01:54.225Z,10.98
2022-12-23T18:04:22.762Z,11.07
2022-12-23T18:06:54.294Z,11.18
2022-12-23T18:09:22.347Z,11.29
2022-12-23T18:11:50.694Z,11.42
2022-12-23T18:14:32.828Z,11.61
2022-12-23T18:17:01.349Z,11.94
2022-12-23T18:19:31.738Z,12.15
2022-12-23T18:22:05.862Z,12.27
2022-12-23T18:24:34.221Z,12.50
2022-12-23T18:27:05.621Z,12.60
2022-12-23T18:29:33.674Z,12.58
2022-12-23T18:32:05.437Z,12.64
2022-12-23T18:34:37.540Z,12.65
2022-12-23T18:37:06.052Z,12.76
2022-12-23T18:39:36.793Z,12.79
2022-12-23T18:42:05.981Z,12.78
2022-12-23T18:44:34.252Z,12.76
2022-12-23T18:47:02.536Z,12.79
2022-12-23T18:49:30.876Z,12.83
2022-12-23T18:51:59.157Z,12.88
2022-12-23T18:54:27.505Z,12.95
2022-12-23T18:56:56.459Z,13.06
2022-12-23T18:59:30.157Z,13.10
2022-12-23T19:01:59.569Z,13.17
2022-12-23T19:04:28.944Z,13.24
2022-12-23T19:06:58.042Z,13.34
2022-12-23T19:09:26.844Z,13.41
2022-12-23T19:11:55.506Z,13.51
2022-12-23T19:14:24.228Z,13.59
2022-12-23T19:16:53.092Z,13.63
2022-12-23T19:19:22.722Z,13.68
2022-12-23T19:21:51.030Z,13.70
2022-12-23T19:24:19.580Z,13.69
2022-12-23T19:26:48.067Z,13.67
2022-12-23T19:29:16.771Z,13.63
2022-12-23T19:31:45.136Z,13.66
2022-12-23T19:34:15.662Z,13.71
2022-12-23T19:36:44.957Z,13.79
2022-12-23T19:39:17.189Z,13.81
2022-12-23T19:41:47.077Z,13.85
2022-12-23T19:44:15.924Z,13.88
2022-12-23T19:46:44.293Z,13.88
2022-12-23T19:49:19.487Z,13.89
2022-12-23T19:51:48.731Z,13.89
2022-12-23T19:54:17.480Z,13.88
2022-12-23T19:56:46.265Z,13.87
2022-12-23T19:59:14.547Z,13.88
2022-12-23T20:01:42.879Z,13.86
2022-12-23T20:04:11.629Z,13.90
2022-12-23T20:06:41.586Z,13.97
2022-12-23T20:09:12.417Z,13.99
2022-12-23T20:11:44.654Z,13.98
2022-12-23T20:14:14.969Z,13.96
2022-12-23T20:16:43.779Z,13.93
2022-12-23T20:19:12.654Z,13.94
2022-12-23T20:21:41.175Z,13.98
2022-12-23T20:24:09.709Z,14.01
2022-12-23T20:26:38.155Z,13.98
2022-12-23T20:29:06.958Z,13.96
2022-12-23T20:31:38.435Z,13.95
2022-12-23T20:34:10.234Z,13.94
2022-12-23T20:36:41.725Z,13.90
2022-12-23T20:39:10.826Z,13.90
2022-12-23T20:41:40.170Z,13.90
2022-12-23T20:44:33.982Z,13.87
2022-12-23T20:46:57.100Z,13.88
2022-12-23T20:49:25.561Z,13.89
2022-12-23T20:52:14.208Z,13.88
2022-12-23T20:54:42.590Z,13.83
2022-12-23T20:57:11.483Z,13.80
2022-12-23T20:59:39.933Z,13.76
2022-12-23T21:02:15.033Z,13.76
2022-12-23T21:04:44.273Z,13.75
2022-12-23T21:07:12.985Z,13.76
2022-12-23T21:09:41.599Z,13.74
2022-12-23T21:12:09.990Z,13.74
2022-12-23T21:14:38.365Z,13.72
2022-12-23T21:17:14.134Z,13.71
2022-12-23T21:19:42.895Z,13.67
2022-12-23T21:22:13.551Z,13.65
2022-12-23T21:24:42.012Z,13.64
2022-12-23T21:27:10.480Z,13.63
2022-12-23T21:29:41.417Z,13.60
2022-12-23T21:32:43.458Z,13.58
2022-12-23T21:35:11.915Z,13.54
2022-12-23T21:37:46.271Z,13.53
2022-12-23T21:40:42.826Z,13.52
2022-12-23T21:43:38.302Z,13.48
2022-12-23T21:46:46.941Z,13.40
2022-12-23T21:56:16.404Z,13.25
2022-12-23T22:01:47.303Z,13.24
2022-12-23T22:04:41.135Z,13.22
2022-12-23T22:08:25.621Z,13.23
2022-12-23T22:11:40.998Z,13.20
2022-12-23T22:14:12.779Z,13.19
2022-12-23T22:16:41.380Z,13.21
2022-12-23T22:19:13.524Z,13.24
2022-12-23T22:21:43.363Z,13.28
2022-12-23T22:24:35.259Z,13.29
2022-12-23T22:27:17.725Z,13.30
2022-12-23T22:29:46.441Z,13.29
2022-12-23T22:32:14.860Z,13.30
2022-12-23T22:34:43.197Z,13.30
2022-12-23T22:37:17.263Z,13.28
2022-12-23T22:39:45.532Z,13.27
2022-12-23T22:42:24.234Z,13.25
2022-12-23T22:45:25.172Z,13.23
2022-12-23T22:47:44.566Z,13.24
2022-12-23T22:50:13.119Z,13.25
2022-12-23T22:52:43.964Z,13.28
2022-12-23T22:55:15.508Z,13.31
2022-12-23T22:57:43.801Z,13.30
2022-12-23T23:00:33.597Z,13.31
2022-12-23T23:03:12.113Z,13.31
2022-12-23T23:05:43.471Z,13.32
2022-12-23T23:08:41.113Z,13.32
2022-12-23T23:11:44.425Z,13.31
2022-12-23T23:14:50.342Z,13.28
2022-12-23T23:17:41.448Z,13.27
2022-12-23T23:20:15.528Z,13.27
2022-12-23T23:22:45.327Z,13.25
2022-12-23T23:25:13.771Z,13.27
2022-12-23T23:27:45.232Z,13.29
2022-12-23T23:30:13.316Z,13.26
2022-12-23T23:32:45.031Z,13.25
2022-12-23T23:35:13.568Z,13.27
2022-12-23T23:37:41.896Z,13.27
2022-12-23T23:40:13.621Z,13.28
2022-12-23T23:42:45.053Z,13.29
2022-12-23T23:45:13.103Z,13.27
2022-12-23T23:47:44.985Z,13.27
2022-12-23T23:50:21.032Z,13.25
2022-12-23T23:52:49.327Z,13.26
2022-12-23T23:55:23.851Z,13.24
2022-12-23T23:57:52.206Z,13.23
